sensor_id;sensor_type;location;lat;lon;timestamp;temperature;humidity
67186;HTU21D;54116;53.518;49.398;2023-05-09T00:02:04;-13.52;118.99
67186;HTU21D;54116;53.518;49.398;2023-05-09T00:04:30;-13.51;118.99
67186;HTU21D;54116;53.518;49.398;2023-05-09T00:06:57;-13.51;118.99
67186;HTU21D;54116;53.518;49.398;2023-05-09T00:09:24;-13.49;118.99
67186;HTU21D;54116;53.518;49.398;2023-05-09T00:11:50;-13.49;118.99
67186;HTU21D;54116;53.518;49.398;2023-05-09T00:14:16;-13.52;118.99
67186;HTU21D;54116;53.518;49.398;2023-05-09T00:16:46;-13.47;118.99
67186;HTU21D;54116;53.518;49.398;2023-05-09T00:19:12;-13.49;118.99
67186;HTU21D;54116;53.518;49.398;2023-05-09T00:21:38;-13.45;118.99
67186;HTU21D;54116;53.518;49.398;2023-05-09T00:24:05;-13.46;118.99
67186;HTU21D;54116;53.518;49.398;2023-05-09T00:26:31;-13.48;118.99
67186;HTU21D;54116;53.518;49.398;2023-05-09T00:28:57;-13.47;118.99
67186;HTU21D;54116;53.518;49.398;2023-05-09T00:31:23;-13.47;118.99
67186;HTU21D;54116;53.518;49.398;2023-05-09T00:33:49;-13.48;118.99
67186;HTU21D;54116;53.518;49.398;2023-05-09T00:36:15;-13.53;118.99
67186;HTU21D;54116;53.518;49.398;2023-05-09T00:38:41;-13.53;118.99
67186;HTU21D;54116;53.518;49.398;2023-05-09T00:41:07;-13.49;118.99
67186;HTU21D;54116;53.518;49.398;2023-05-09T00:43:33;-13.49;118.99
67186;HTU21D;54116;53.518;49.398;2023-05-09T00:45:59;-13.56;118.99
67186;HTU21D;54116;53.518;49.398;2023-05-09T00:48:25;-13.57;118.99
67186;HTU21D;54116;53.518;49.398;2023-05-09T00:50:51;-13.53;118.99
67186;HTU21D;54116;53.518;49.398;2023-05-09T00:53:19;-13.47;118.99
67186;HTU21D;54116;53.518;49.398;2023-05-09T00:55:45;-13.41;118.99
67186;HTU21D;54116;53.518;49.398;2023-05-09T00:58:12;-13.40;118.99
67186;HTU21D;54116;53.518;49.398;2023-05-09T01:00:38;-13.37;118.99
67186;HTU21D;54116;53.518;49.398;2023-05-09T01:03:05;-13.39;118.99
67186;HTU21D;54116;53.518;49.398;2023-05-09T01:05:57;-13.43;118.99
67186;HTU21D;54116;53.518;49.398;2023-05-09T01:11:03;-13.45;118.99
67186;HTU21D;54116;53.518;49.398;2023-05-09T01:13:43;-13.46;118.99
67186;HTU21D;54116;53.518;49.398;2023-05-09T01:16:24;-13.49;118.99
67186;HTU21D;54116;53.518;49.398;2023-05-09T01:19:29;-13.44;118.99
67186;HTU21D;54116;53.518;49.398;2023-05-09T01:21:58;-13.39;118.99
67186;HTU21D;54116;53.518;49.398;2023-05-09T01:27:21;-13.31;118.99
67186;HTU21D;54116;53.518;49.398;2023-05-09T01:29:51;-13.27;118.99
67186;HTU21D;54116;53.518;49.398;2023-05-09T01:32:27;-13.23;118.99
67186;HTU21D;54116;53.518;49.398;2023-05-09T01:34:55;-13.22;118.99
67186;HTU21D;54116;53.518;49.398;2023-05-09T01:37:34;-13.16;118.99
67186;HTU21D;54116;53.518;49.398;2023-05-09T01:40:10;-13.13;118.99
67186;HTU21D;54116;53.518;49.398;2023-05-09T01:43:03;-13.09;118.99
67186;HTU21D;54116;53.518;49.398;2023-05-09T01:45:31;-13.00;118.99
67186;HTU21D;54116;53.518;49.398;2023-05-09T01:47:59;-12.93;118.99
67186;HTU21D;54116;53.518;49.398;2023-05-09T01:50:26;-12.78;118.99
67186;HTU21D;54116;53.518;49.398;2023-05-09T01:52:55;-12.71;118.99
67186;HTU21D;54116;53.518;49.398;2023-05-09T01:55:23;-12.55;118.99
67186;HTU21D;54116;53.518;49.398;2023-05-09T01:57:53;-12.35;118.99
67186;HTU21D;54116;53.518;49.398;2023-05-09T02:00:20;-12.18;118.99
67186;HTU21D;54116;53.518;49.398;2023-05-09T02:02:47;-12.06;118.99
67186;HTU21D;54116;53.518;49.398;2023-05-09T02:05:14;-11.93;118.99
67186;HTU21D;54116;53.518;49.398;2023-05-09T02:07:41;-11.82;118.99
67186;HTU21D;54116;53.518;49.398;2023-05-09T02:10:08;-11.69;118.99
67186;HTU21D;54116;53.518;49.398;2023-05-09T02:12:35;-11.61;118.99
67186;HTU21D;54116;53.518;49.398;2023-05-09T02:15:01;-11.49;118.99
67186;HTU21D;54116;53.518;49.398;2023-05-09T02:17:27;-11.39;118.99
67186;HTU21D;54116;53.518;49.398;2023-05-09T02:19:56;-11.26;118.99
67186;HTU21D;54116;53.518;49.398;2023-05-09T02:22:22;-11.10;118.99
67186;HTU21D;54116;53.518;49.398;2023-05-09T02:24:48;-10.75;118.99
67186;HTU21D;54116;53.518;49.398;2023-05-09T02:27:15;-9.09;118.99
67186;HTU21D;54116;53.518;49.398;2023-05-09T02:29:45;-7.47;118.99
67186;HTU21D;54116;53.518;49.398;2023-05-09T02:32:19;-7.50;118.99
67186;HTU21D;54116;53.518;49.398;2023-05-09T02:34:48;-8.35;118.99
67186;HTU21D;54116;53.518;49.398;2023-05-09T02:37:15;-8.74;118.99
67186;HTU21D;54116;53.518;49.398;2023-05-09T02:39:43;-8.87;118.99
67186;HTU21D;54116;53.518;49.398;2023-05-09T02:42:11;-9.07;118.99
67186;HTU21D;54116;53.518;49.398;2023-05-09T02:44:38;-9.31;118.99
67186;HTU21D;54116;53.518;49.398;2023-05-09T02:47:05;-9.58;118.99
67186;HTU21D;54116;53.518;49.398;2023-05-09T02:49:32;-9.74;118.99
67186;HTU21D;54116;53.518;49.398;2023-05-09T02:51:59;-9.74;118.99
67186;HTU21D;54116;53.518;49.398;2023-05-09T02:54:26;-9.82;118.99
67186;HTU21D;54116;53.518;49.398;2023-05-09T02:56:52;-9.88;118.99
67186;HTU21D;54116;53.518;49.398;2023-05-09T02:59:18;-9.88;118.99
67186;HTU21D;54116;53.518;49.398;2023-05-09T03:01:44;-9.81;118.99
67186;HTU21D;54116;53.518;49.398;2023-05-09T03:04:11;-9.69;118.99
67186;HTU21D;54116;53.518;49.398;2023-05-09T03:06:37;-9.49;118.99
67186;HTU21D;54116;53.518;49.398;2023-05-09T03:09:03;-9.28;118.99
67186;HTU21D;54116;53.518;49.398;2023-05-09T03:11:29;-9.20;118.99
67186;HTU21D;54116;53.518;49.398;2023-05-09T03:13:55;-9.08;118.99
67186;HTU21D;54116;53.518;49.398;2023-05-09T03:16:21;-8.99;118.99
67186;HTU21D;54116;53.518;49.398;2023-05-09T03:18:47;-8.79;118.99
67186;HTU21D;54116;53.518;49.398;2023-05-09T03:21:14;-8.56;118.99
67186;HTU21D;54116;53.518;49.398;2023-05-09T03:23:40;-8.21;118.99
67186;HTU21D;54116;53.518;49.398;2023-05-09T03:26:06;-8.03;118.99
67186;HTU21D;54116;53.518;49.398;2023-05-09T03:28:32;-7.94;118.99
67186;HTU21D;54116;53.518;49.398;2023-05-09T03:30:58;-7.45;118.99
67186;HTU21D;54116;53.518;49.398;2023-05-09T03:33:24;-6.51;118.99
67186;HTU21D;54116;53.518;49.398;2023-05-09T03:35:51;-4.80;118.99
67186;HTU21D;54116;53.518;49.398;2023-05-09T03:38:17;-3.74;118.99
67186;HTU21D;54116;53.518;49.398;2023-05-09T03:40:43;-3.16;118.99
67186;HTU21D;54116;53.518;49.398;2023-05-09T03:43:09;-3.03;118.99
67186;HTU21D;54116;53.518;49.398;2023-05-09T03:45:35;-2.69;118.99
67186;HTU21D;54116;53.518;49.398;2023-05-09T03:48:04;-3.16;118.99
67186;HTU21D;54116;53.518;49.398;2023-05-09T03:50:37;-3.33;118.99
67186;HTU21D;54116;53.518;49.398;2023-05-09T03:53:03;-2.80;118.99
67186;HTU21D;54116;53.518;49.398;2023-05-09T03:55:29;-2.45;118.99
67186;HTU21D;54116;53.518;49.398;2023-05-09T03:57:56;-2.03;118.99
67186;HTU21D;54116;53.518;49.398;2023-05-09T04:00:22;-1.78;118.99
67186;HTU21D;54116;53.518;49.398;2023-05-09T04:02:48;-1.73;118.99
67186;HTU21D;54116;53.518;49.398;2023-05-09T04:05:15;-2.07;118.99
67186;HTU21D;54116;53.518;49.398;2023-05-09T04:07:41;-2.12;118.99
67186;HTU21D;54116;53.518;49.398;2023-05-09T04:10:08;-2.17;118.99
67186;HTU21D;54116;53.518;49.398;2023-05-09T04:12:34;-2.02;118.99
67186;HTU21D;54116;53.518;49.398;2023-05-09T04:15:00;-1.44;118.99
67186;HTU21D;54116;53.518;49.398;2023-05-09T04:17:26;-1.97;118.99
67186;HTU21D;54116;53.518;49.398;2023-05-09T04:19:52;-1.78;118.99
67186;HTU21D;54116;53.518;49.398;2023-05-09T04:22:19;-1.43;118.99
67186;HTU21D;54116;53.518;49.398;2023-05-09T04:24:45;-2.13;118.99
67186;HTU21D;54116;53.518;49.398;2023-05-09T04:27:11;-2.35;118.99
67186;HTU21D;54116;53.518;49.398;2023-05-09T04:29:37;-2.52;118.99
67186;HTU21D;54116;53.518;49.398;2023-05-09T04:32:04;-2.14;118.99
67186;HTU21D;54116;53.518;49.398;2023-05-09T04:34:30;-1.53;118.99
67186;HTU21D;54116;53.518;49.398;2023-05-09T04:36:58;-1.49;118.99
67186;HTU21D;54116;53.518;49.398;2023-05-09T04:39:24;-1.86;118.99
67186;HTU21D;54116;53.518;49.398;2023-05-09T04:41:50;-2.04;118.99
67186;HTU21D;54116;53.518;49.398;2023-05-09T04:44:17;-2.30;118.99
67186;HTU21D;54116;53.518;49.398;2023-05-09T04:46:43;-2.26;118.99
67186;HTU21D;54116;53.518;49.398;2023-05-09T04:49:09;-2.27;118.99
67186;HTU21D;54116;53.518;49.398;2023-05-09T04:51:35;-2.46;118.99
67186;HTU21D;54116;53.518;49.398;2023-05-09T04:54:01;-2.45;118.99
67186;HTU21D;54116;53.518;49.398;2023-05-09T04:56:28;-3.06;118.99
67186;HTU21D;54116;53.518;49.398;2023-05-09T04:58:54;-2.89;118.99
67186;HTU21D;54116;53.518;49.398;2023-05-09T05:01:20;-2.75;118.99
67186;HTU21D;54116;53.518;49.398;2023-05-09T05:03:46;-2.34;118.99
67186;HTU21D;54116;53.518;49.398;2023-05-09T05:06:12;-2.21;118.99
67186;HTU21D;54116;53.518;49.398;2023-05-09T05:08:38;-2.22;118.99
67186;HTU21D;54116;53.518;49.398;2023-05-09T05:11:04;-2.21;118.99
67186;HTU21D;54116;53.518;49.398;2023-05-09T05:13:49;-3.00;118.99
67186;HTU21D;54116;53.518;49.398;2023-05-09T05:16:17;-2.89;118.99
67186;HTU21D;54116;53.518;49.398;2023-05-09T05:19:01;-2.82;118.99
67186;HTU21D;54116;53.518;49.398;2023-05-09T05:21:27;-2.78;118.99
67186;HTU21D;54116;53.518;49.398;2023-05-09T05:24:18;-2.77;118.99
67186;HTU21D;54116;53.518;49.398;2023-05-09T05:26:44;-2.62;118.99
67186;HTU21D;54116;53.518;49.398;2023-05-09T05:29:15;-2.17;118.99
67186;HTU21D;54116;53.518;49.398;2023-05-09T05:31:42;-2.27;118.99
67186;HTU21D;54116;53.518;49.398;2023-05-09T05:34:08;-2.69;118.99
67186;HTU21D;54116;53.518;49.398;2023-05-09T05:36:34;-3.01;118.99
67186;HTU21D;54116;53.518;49.398;2023-05-09T05:39:18;-2.31;118.99
67186;HTU21D;54116;53.518;49.398;2023-05-09T05:41:45;-2.72;118.99
67186;HTU21D;54116;53.518;49.398;2023-05-09T05:44:11;-2.88;118.99
67186;HTU21D;54116;53.518;49.398;2023-05-09T05:46:36;-2.83;118.99
67186;HTU21D;54116;53.518;49.398;2023-05-09T05:49:03;-3.01;118.99
67186;HTU21D;54116;53.518;49.398;2023-05-09T05:51:29;-2.81;118.99
67186;HTU21D;54116;53.518;49.398;2023-05-09T05:53:56;-2.81;118.99
67186;HTU21D;54116;53.518;49.398;2023-05-09T05:59:07;-2.93;118.99
67186;HTU21D;54116;53.518;49.398;2023-05-09T06:01:33;-3.13;118.99
67186;HTU21D;54116;53.518;49.398;2023-05-09T06:04:18;-3.36;118.99
67186;HTU21D;54116;53.518;49.398;2023-05-09T06:06:44;-3.37;118.99
67186;HTU21D;54116;53.518;49.398;2023-05-09T06:09:10;-3.25;118.99
67186;HTU21D;54116;53.518;49.398;2023-05-09T06:14:21;-3.33;118.99
67186;HTU21D;54116;53.518;49.398;2023-05-09T06:16:53;-3.00;118.99
67186;HTU21D;54116;53.518;49.398;2023-05-09T06:19:22;-3.18;118.99
67186;HTU21D;54116;53.518;49.398;2023-05-09T06:22:07;-3.71;118.99
67186;HTU21D;54116;53.518;49.398;2023-05-09T06:24:35;-3.61;118.99
67186;HTU21D;54116;53.518;49.398;2023-05-09T06:27:01;-3.82;118.99
67186;HTU21D;54116;53.518;49.398;2023-05-09T06:29:46;-3.81;118.99
67186;HTU21D;54116;53.518;49.398;2023-05-09T06:32:13;-3.86;118.99
67186;HTU21D;54116;53.518;49.398;2023-05-09T06:34:39;-3.95;118.99
67186;HTU21D;54116;53.518;49.398;2023-05-09T06:37:07;-4.12;118.99
67186;HTU21D;54116;53.518;49.398;2023-05-09T06:39:33;-4.12;118.99
67186;HTU21D;54116;53.518;49.398;2023-05-09T06:41:59;-4.27;118.99
67186;HTU21D;54116;53.518;49.398;2023-05-09T06:44:25;-4.27;118.99
67186;HTU21D;54116;53.518;49.398;2023-05-09T06:46:52;-4.23;118.99
67186;HTU21D;54116;53.518;49.398;2023-05-09T06:49:19;-4.09;118.99
67186;HTU21D;54116;53.518;49.398;2023-05-09T06:51:45;-4.02;118.99
67186;HTU21D;54116;53.518;49.398;2023-05-09T06:54:12;-4.14;118.99
67186;HTU21D;54116;53.518;49.398;2023-05-09T06:56:38;-4.17;118.99
67186;HTU21D;54116;53.518;49.398;2023-05-09T06:59:05;-4.52;118.99
67186;HTU21D;54116;53.518;49.398;2023-05-09T07:01:32;-4.41;118.99
67186;HTU21D;54116;53.518;49.398;2023-05-09T07:03:58;-4.40;118.99
67186;HTU21D;54116;53.518;49.398;2023-05-09T07:06:25;-4.34;118.99
67186;HTU21D;54116;53.518;49.398;2023-05-09T07:08:51;-4.41;118.99
67186;HTU21D;54116;53.518;49.398;2023-05-09T07:11:17;-4.40;118.99
67186;HTU21D;54116;53.518;49.398;2023-05-09T07:13:44;-4.45;118.99
67186;HTU21D;54116;53.518;49.398;2023-05-09T07:16:11;-4.37;118.99
67186;HTU21D;54116;53.518;49.398;2023-05-09T07:18:56;-4.42;118.99
67186;HTU21D;54116;53.518;49.398;2023-05-09T07:21:23;-4.40;118.99
67186;HTU21D;54116;53.518;49.398;2023-05-09T07:23:49;-4.25;118.99
67186;HTU21D;54116;53.518;49.398;2023-05-09T07:26:15;-4.28;118.99
67186;HTU21D;54116;53.518;49.398;2023-05-09T07:29:00;-4.42;118.99
67186;HTU21D;54116;53.518;49.398;2023-05-09T07:31:26;-4.31;118.99
67186;HTU21D;54116;53.518;49.398;2023-05-09T07:34:12;-4.31;118.99
67186;HTU21D;54116;53.518;49.398;2023-05-09T07:36:56;-4.22;118.99
67186;HTU21D;54116;53.518;49.398;2023-05-09T07:39:41;-4.16;118.99
67186;HTU21D;54116;53.518;49.398;2023-05-09T07:42:07;-3.98;118.99
67186;HTU21D;54116;53.518;49.398;2023-05-09T07:44:34;-4.02;118.99
67186;HTU21D;54116;53.518;49.398;2023-05-09T07:47:19;-4.13;118.99
67186;HTU21D;54116;53.518;49.398;2023-05-09T07:49:45;-4.16;118.99
67186;HTU21D;54116;53.518;49.398;2023-05-09T07:52:12;-4.23;118.99
67186;HTU21D;54116;53.518;49.398;2023-05-09T07:54:43;-4.25;118.99
67186;HTU21D;54116;53.518;49.398;2023-05-09T07:57:09;-4.25;118.99
67186;HTU21D;54116;53.518;49.398;2023-05-09T08:02:22;-4.14;118.99
67186;HTU21D;54116;53.518;49.398;2023-05-09T08:04:49;-4.04;118.99
67186;HTU21D;54116;53.518;49.398;2023-05-09T08:07:21;-4.07;118.99
67186;HTU21D;54116;53.518;49.398;2023-05-09T08:10:07;-4.01;118.99
67186;HTU21D;54116;53.518;49.398;2023-05-09T08:12:34;-4.00;118.99
67186;HTU21D;54116;53.518;49.398;2023-05-09T08:15:19;-3.95;118.99
67186;HTU21D;54116;53.518;49.398;2023-05-09T08:17:45;-3.74;118.99
67186;HTU21D;54116;53.518;49.398;2023-05-09T08:20:12;-3.70;118.99
67186;HTU21D;54116;53.518;49.398;2023-05-09T08:22:38;-3.84;118.99
67186;HTU21D;54116;53.518;49.398;2023-05-09T08:25:26;-3.89;118.99
67186;HTU21D;54116;53.518;49.398;2023-05-09T08:27:52;-3.83;118.99
67186;HTU21D;54116;53.518;49.398;2023-05-09T08:30:20;-3.77;118.99
67186;HTU21D;54116;53.518;49.398;2023-05-09T08:32:46;-3.61;118.99
67186;HTU21D;54116;53.518;49.398;2023-05-09T08:35:31;-3.61;118.99
67186;HTU21D;54116;53.518;49.398;2023-05-09T08:37:57;-3.66;118.99
67186;HTU21D;54116;53.518;49.398;2023-05-09T08:43:10;-3.64;118.99
67186;HTU21D;54116;53.518;49.398;2023-05-09T08:45:50;-3.67;118.99
67186;HTU21D;54116;53.518;49.398;2023-05-09T08:48:17;-3.86;118.99
67186;HTU21D;54116;53.518;49.398;2023-05-09T08:50:43;-3.55;118.99
67186;HTU21D;54116;53.518;49.398;2023-05-09T08:53:10;-3.78;118.99
67186;HTU21D;54116;53.518;49.398;2023-05-09T08:55:57;-3.82;118.99
67186;HTU21D;54116;53.518;49.398;2023-05-09T08:58:26;-3.70;118.99
67186;HTU21D;54116;53.518;49.398;2023-05-09T09:01:06;-3.62;118.99
67186;HTU21D;54116;53.518;49.398;2023-05-09T09:03:42;-3.41;118.99
67186;HTU21D;54116;53.518;49.398;2023-05-09T09:06:12;-3.46;118.99
67186;HTU21D;54116;53.518;49.398;2023-05-09T09:08:39;-3.53;118.99
67186;HTU21D;54116;53.518;49.398;2023-05-09T09:11:09;-3.79;118.99
67186;HTU21D;54116;53.518;49.398;2023-05-09T09:13:39;-3.93;118.99
67186;HTU21D;54116;53.518;49.398;2023-05-09T09:16:08;-3.83;118.99
67186;HTU21D;54116;53.518;49.398;2023-05-09T09:18:37;-3.69;118.99
67186;HTU21D;54116;53.518;49.398;2023-05-09T09:21:09;-3.69;118.99
67186;HTU21D;54116;53.518;49.398;2023-05-09T09:23:38;-3.65;118.99
67186;HTU21D;54116;53.518;49.398;2023-05-09T09:26:05;-3.45;118.99
67186;HTU21D;54116;53.518;49.398;2023-05-09T09:28:32;-3.72;118.99
67186;HTU21D;54116;53.518;49.398;2023-05-09T09:31:00;-3.72;118.99
67186;HTU21D;54116;53.518;49.398;2023-05-09T09:33:28;-3.56;118.99
67186;HTU21D;54116;53.518;49.398;2023-05-09T09:35:55;-3.63;118.99
67186;HTU21D;54116;53.518;49.398;2023-05-09T09:38:23;-3.55;118.99
67186;HTU21D;54116;53.518;49.398;2023-05-09T09:40:58;-3.52;118.99
67186;HTU21D;54116;53.518;49.398;2023-05-09T09:43:29;-3.52;118.99
67186;HTU21D;54116;53.518;49.398;2023-05-09T09:45:56;-3.37;118.99
67186;HTU21D;54116;53.518;49.398;2023-05-09T09:48:26;-3.32;118.99
67186;HTU21D;54116;53.518;49.398;2023-05-09T09:50:56;-3.34;118.99
67186;HTU21D;54116;53.518;49.398;2023-05-09T09:53:22;-3.19;118.99
67186;HTU21D;54116;53.518;49.398;2023-05-09T09:55:51;-3.25;118.99
67186;HTU21D;54116;53.518;49.398;2023-05-09T09:58:19;-3.34;118.99
67186;HTU21D;54116;53.518;49.398;2023-05-09T10:01:06;-3.18;118.99
67186;HTU21D;54116;53.518;49.398;2023-05-09T10:03:39;-3.11;118.99
67186;HTU21D;54116;53.518;49.398;2023-05-09T10:06:14;-3.17;118.99
67186;HTU21D;54116;53.518;49.398;2023-05-09T10:08:41;-3.17;118.99
67186;HTU21D;54116;53.518;49.398;2023-05-09T10:11:08;-3.03;118.99
67186;HTU21D;54116;53.518;49.398;2023-05-09T10:13:35;-3.00;118.99
67186;HTU21D;54116;53.518;49.398;2023-05-09T10:16:05;-3.21;118.99
67186;HTU21D;54116;53.518;49.398;2023-05-09T10:18:34;-3.24;118.99
67186;HTU21D;54116;53.518;49.398;2023-05-09T10:21:00;-3.33;118.99
67186;HTU21D;54116;53.518;49.398;2023-05-09T10:23:31;-3.24;118.99
67186;HTU21D;54116;53.518;49.398;2023-05-09T10:28:41;-3.53;118.99
67186;HTU21D;54116;53.518;49.398;2023-05-09T10:31:23;-3.30;118.99
67186;HTU21D;54116;53.518;49.398;2023-05-09T10:33:52;-3.20;118.99
67186;HTU21D;54116;53.518;49.398;2023-05-09T10:36:20;-3.36;118.99
67186;HTU21D;54116;53.518;49.398;2023-05-09T10:38:48;-3.28;118.99
67186;HTU21D;54116;53.518;49.398;2023-05-09T10:41:16;-3.41;118.99
67186;HTU21D;54116;53.518;49.398;2023-05-09T10:43:44;-3.15;118.99
67186;HTU21D;54116;53.518;49.398;2023-05-09T10:46:11;-3.26;118.99
67186;HTU21D;54116;53.518;49.398;2023-05-09T10:48:39;-3.43;118.99
67186;HTU21D;54116;53.518;49.398;2023-05-09T10:51:07;-3.45;118.99
67186;HTU21D;54116;53.518;49.398;2023-05-09T10:53:49;-3.21;118.99
67186;HTU21D;54116;53.518;49.398;2023-05-09T10:58:52;-3.37;118.99
67186;HTU21D;54116;53.518;49.398;2023-05-09T11:01:30;-3.20;118.99
67186;HTU21D;54116;53.518;49.398;2023-05-09T11:04:00;-3.08;118.99
67186;HTU21D;54116;53.518;49.398;2023-05-09T11:06:47;-3.37;118.99
67186;HTU21D;54116;53.518;49.398;2023-05-09T11:09:32;-3.06;118.99
67186;HTU21D;54116;53.518;49.398;2023-05-09T11:22:22;-3.11;118.99
67186;HTU21D;54116;53.518;49.398;2023-05-09T11:25:02;-3.06;118.99
67186;HTU21D;54116;53.518;49.398;2023-05-09T11:27:50;-2.97;118.99
67186;HTU21D;54116;53.518;49.398;2023-05-09T11:30:19;-3.20;118.99
67186;HTU21D;54116;53.518;49.398;2023-05-09T11:35:17;-3.28;118.99
67186;HTU21D;54116;53.518;49.398;2023-05-09T11:38:04;-3.26;118.99
67186;HTU21D;54116;53.518;49.398;2023-05-09T11:40:40;-3.25;118.99
67186;HTU21D;54116;53.518;49.398;2023-05-09T11:43:06;-3.18;118.99
67186;HTU21D;54116;53.518;49.398;2023-05-09T11:45:34;-3.15;118.99
67186;HTU21D;54116;53.518;49.398;2023-05-09T11:48:00;-3.02;118.99
67186;HTU21D;54116;53.518;49.398;2023-05-09T11:50:33;-3.07;118.99
67186;HTU21D;54116;53.518;49.398;2023-05-09T11:53:00;-3.11;118.99
67186;HTU21D;54116;53.518;49.398;2023-05-09T11:55:26;-3.02;118.99
67186;HTU21D;54116;53.518;49.398;2023-05-09T11:57:57;-2.90;118.99
67186;HTU21D;54116;53.518;49.398;2023-05-09T12:00:24;-2.98;118.99
67186;HTU21D;54116;53.518;49.398;2023-05-09T12:02:51;-3.08;118.99
67186;HTU21D;54116;53.518;49.398;2023-05-09T12:05:22;-3.02;118.99
67186;HTU21D;54116;53.518;49.398;2023-05-09T12:07:48;-3.03;118.99
67186;HTU21D;54116;53.518;49.398;2023-05-09T12:10:19;-3.06;118.99
67186;HTU21D;54116;53.518;49.398;2023-05-09T12:12:47;-3.09;118.99
67186;HTU21D;54116;53.518;49.398;2023-05-09T12:15:14;-2.79;118.99
67186;HTU21D;54116;53.518;49.398;2023-05-09T12:17:42;-2.92;118.99
67186;HTU21D;54116;53.518;49.398;2023-05-09T12:20:09;-2.61;118.99
67186;HTU21D;54116;53.518;49.398;2023-05-09T12:22:41;-2.97;118.99
67186;HTU21D;54116;53.518;49.398;2023-05-09T12:25:09;-3.04;118.99
67186;HTU21D;54116;53.518;49.398;2023-05-09T12:27:38;-3.00;118.99
67186;HTU21D;54116;53.518;49.398;2023-05-09T12:30:06;-3.16;118.99
67186;HTU21D;54116;53.518;49.398;2023-05-09T12:32:36;-3.10;118.99
67186;HTU21D;54116;53.518;49.398;2023-05-09T12:35:09;-2.89;118.99
67186;HTU21D;54116;53.518;49.398;2023-05-09T12:37:37;-2.67;118.99
67186;HTU21D;54116;53.518;49.398;2023-05-09T12:40:11;-2.84;118.99
67186;HTU21D;54116;53.518;49.398;2023-05-09T12:42:44;-3.02;118.99
67186;HTU21D;54116;53.518;49.398;2023-05-09T12:45:11;-2.98;118.99
67186;HTU21D;54116;53.518;49.398;2023-05-09T12:47:38;-3.00;118.99
67186;HTU21D;54116;53.518;49.398;2023-05-09T12:50:09;-2.98;118.99
67186;HTU21D;54116;53.518;49.398;2023-05-09T12:52:39;-3.01;118.99
67186;HTU21D;54116;53.518;49.398;2023-05-09T12:55:10;-2.89;118.99
67186;HTU21D;54116;53.518;49.398;2023-05-09T12:57:38;-2.82;118.99
67186;HTU21D;54116;53.518;49.398;2023-05-09T13:00:06;-2.95;118.99
67186;HTU21D;54116;53.518;49.398;2023-05-09T13:02:35;-2.88;118.99
67186;HTU21D;54116;53.518;49.398;2023-05-09T13:05:12;-3.18;118.99
67186;HTU21D;54116;53.518;49.398;2023-05-09T13:07:47;-3.16;118.99
67186;HTU21D;54116;53.518;49.398;2023-05-09T13:10:19;-3.11;118.99
67186;HTU21D;54116;53.518;49.398;2023-05-09T13:12:49;-3.18;118.99
67186;HTU21D;54116;53.518;49.398;2023-05-09T13:15:17;-3.10;118.99
67186;HTU21D;54116;53.518;49.398;2023-05-09T13:17:48;-3.00;118.99
67186;HTU21D;54116;53.518;49.398;2023-05-09T13:20:15;-3.24;118.99
67186;HTU21D;54116;53.518;49.398;2023-05-09T13:22:42;-3.34;118.99
67186;HTU21D;54116;53.518;49.398;2023-05-09T13:25:10;-3.32;118.99
67186;HTU21D;54116;53.518;49.398;2023-05-09T13:27:36;-3.30;118.99
67186;HTU21D;54116;53.518;49.398;2023-05-09T13:30:04;-3.25;118.99
67186;HTU21D;54116;53.518;49.398;2023-05-09T13:32:33;-3.21;118.99
67186;HTU21D;54116;53.518;49.398;2023-05-09T13:35:01;-3.19;118.99
67186;HTU21D;54116;53.518;49.398;2023-05-09T13:37:27;-3.22;118.99
67186;HTU21D;54116;53.518;49.398;2023-05-09T13:39:54;-3.19;118.99
67186;HTU21D;54116;53.518;49.398;2023-05-09T13:42:21;-3.41;118.99
67186;HTU21D;54116;53.518;49.398;2023-05-09T13:44:48;-3.52;118.99
67186;HTU21D;54116;53.518;49.398;2023-05-09T13:47:15;-3.41;118.99
67186;HTU21D;54116;53.518;49.398;2023-05-09T13:49:41;-3.60;118.99
67186;HTU21D;54116;53.518;49.398;2023-05-09T13:52:07;-3.53;118.99
67186;HTU21D;54116;53.518;49.398;2023-05-09T13:54:34;-3.39;118.99
67186;HTU21D;54116;53.518;49.398;2023-05-09T13:57:02;-3.36;118.99
67186;HTU21D;54116;53.518;49.398;2023-05-09T13:59:29;-3.62;118.99
67186;HTU21D;54116;53.518;49.398;2023-05-09T14:01:57;-3.66;118.99
67186;HTU21D;54116;53.518;49.398;2023-05-09T14:04:26;-3.68;118.99
67186;HTU21D;54116;53.518;49.398;2023-05-09T14:06:53;-3.64;118.99
67186;HTU21D;54116;53.518;49.398;2023-05-09T14:09:21;-3.65;118.99
67186;HTU21D;54116;53.518;49.398;2023-05-09T14:11:48;-3.64;118.99
67186;HTU21D;54116;53.518;49.398;2023-05-09T14:14:17;-3.76;118.99
67186;HTU21D;54116;53.518;49.398;2023-05-09T14:16:46;-3.67;118.99
67186;HTU21D;54116;53.518;49.398;2023-05-09T14:19:13;-3.78;118.99
67186;HTU21D;54116;53.518;49.398;2023-05-09T14:21:41;-3.75;118.99
67186;HTU21D;54116;53.518;49.398;2023-05-09T14:24:10;-3.72;118.99
67186;HTU21D;54116;53.518;49.398;2023-05-09T14:26:37;-3.57;118.99
67186;HTU21D;54116;53.518;49.398;2023-05-09T14:29:04;-3.61;118.99
67186;HTU21D;54116;53.518;49.398;2023-05-09T14:31:31;-3.76;118.99
67186;HTU21D;54116;53.518;49.398;2023-05-09T14:33:58;-3.83;118.99
67186;HTU21D;54116;53.518;49.398;2023-05-09T14:36:29;-3.94;118.99
67186;HTU21D;54116;53.518;49.398;2023-05-09T14:38:57;-4.02;118.99
67186;HTU21D;54116;53.518;49.398;2023-05-09T14:41:23;-4.02;118.99
67186;HTU21D;54116;53.518;49.398;2023-05-09T14:43:50;-3.99;118.99
67186;HTU21D;54116;53.518;49.398;2023-05-09T14:46:17;-4.00;118.99
67186;HTU21D;54116;53.518;49.398;2023-05-09T14:48:43;-3.97;118.99
67186;HTU21D;54116;53.518;49.398;2023-05-09T14:51:10;-4.08;118.99
67186;HTU21D;54116;53.518;49.398;2023-05-09T14:53:36;-4.17;118.99
67186;HTU21D;54116;53.518;49.398;2023-05-09T14:56:09;-4.16;118.99
67186;HTU21D;54116;53.518;49.398;2023-05-09T14:58:39;-4.25;118.99
67186;HTU21D;54116;53.518;49.398;2023-05-09T15:01:06;-4.26;118.99
67186;HTU21D;54116;53.518;49.398;2023-05-09T15:03:33;-4.25;118.99
67186;HTU21D;54116;53.518;49.398;2023-05-09T15:05:59;-4.31;118.99
67186;HTU21D;54116;53.518;49.398;2023-05-09T15:08:25;-4.38;118.99
67186;HTU21D;54116;53.518;49.398;2023-05-09T15:10:53;-4.43;118.99
67186;HTU21D;54116;53.518;49.398;2023-05-09T15:13:21;-4.42;118.99
67186;HTU21D;54116;53.518;49.398;2023-05-09T15:15:47;-4.44;118.99
67186;HTU21D;54116;53.518;49.398;2023-05-09T15:18:14;-4.48;118.99
67186;HTU21D;54116;53.518;49.398;2023-05-09T15:20:42;-4.51;118.99
67186;HTU21D;54116;53.518;49.398;2023-05-09T15:23:10;-4.54;118.99
67186;HTU21D;54116;53.518;49.398;2023-05-09T15:25:36;-4.56;118.99
67186;HTU21D;54116;53.518;49.398;2023-05-09T15:28:03;-4.60;118.99
67186;HTU21D;54116;53.518;49.398;2023-05-09T15:30:30;-4.67;118.99
67186;HTU21D;54116;53.518;49.398;2023-05-09T15:32:56;-4.64;118.99